Time;durP1;ratioP1;P1;durP2;ratioP2;P2;SDS_P1;SDS_P2;PMS_P1;PMS_P2;Temp;Humidity;BMP_temperature;BMP_pressure;BME280_temperature;BME280_humidity;BME280_pressure;Samples;Min_cycle;Max_cycle;Signal;HPM_P1;HPM_P2
2023/12/25 00:00:48;;;;;;;11.03;3.10;;;;;;;;;;5037424;28;20506;-80
2023/12/25 00:03:14;;;;;;;11.07;3.50;;;;;;;;;;5036628;28;20526;-80
2023/12/25 00:05:41;;;;;;;12.13;3.70;;;;;;;;;;5037209;28;20551;-79
2023/12/25 00:08:07;;;;;;;15.50;5.10;;;;;;;;;;5036803;28;20555;-80
2023/12/25 00:10:34;;;;;;;10.40;2.50;;;;;;;;;;5037026;28;20545;-80
2023/12/25 00:13:01;;;;;;;8.60;2.30;;;;;;;;;;5036311;28;20548;-79
2023/12/25 00:15:28;;;;;;;9.80;2.43;;;;;;;;;;5036787;28;21046;-80
2023/12/25 00:17:54;;;;;;;8.47;2.30;;;;;;;;;;5036359;28;20651;-79
2023/12/25 00:20:21;;;;;;;8.43;3.73;;;;;;;;;;5036567;28;20475;-80
2023/12/25 00:22:47;;;;;;;6.83;1.90;;;;;;;;;;5036195;28;20500;-80
2023/12/25 00:25:13;;;;;;;12.93;2.90;;;;;;;;;;5036251;28;21036;-80
2023/12/25 00:27:40;;;;;;;4.40;2.50;;;;;;;;;;5035800;28;20523;-79
2023/12/25 00:30:08;;;;;;;12.07;2.63;;;;;;;;;;5036528;28;20498;-79
2023/12/25 00:32:35;;;;;;;7.13;2.10;;;;;;;;;;5035407;28;21017;-80
2023/12/25 00:35:01;;;;;;;8.63;2.23;;;;;;;;;;5036381;28;20526;-79
2023/12/25 00:37:27;;;;;;;6.10;2.47;;;;;;;;;;5035725;28;21047;-80
2023/12/25 00:39:54;;;;;;;6.90;2.13;;;;;;;;;;5036069;28;20525;-80
2023/12/25 00:42:20;;;;;;;7.00;2.00;;;;;;;;;;5035835;28;20880;-80
2023/12/25 00:44:47;;;;;;;7.90;2.50;;;;;;;;;;5035127;28;20515;-80
2023/12/25 00:47:14;;;;;;;4.93;2.17;;;;;;;;;;5035433;28;20547;-79
2023/12/25 00:49:41;;;;;;;6.17;2.20;;;;;;;;;;5035728;28;20514;-79
2023/12/25 00:52:07;;;;;;;13.87;2.80;;;;;;;;;;5035292;28;20563;-79
2023/12/25 00:54:36;;;;;;;4.90;2.70;;;;;;;;;;5035691;28;20861;-80
2023/12/25 00:57:03;;;;;;;4.50;2.23;;;;;;;;;;5035037;28;21005;-79
2023/12/25 00:59:29;;;;;;;7.90;2.37;;;;;;;;;;5035723;28;20452;-80
2023/12/25 01:01:56;;;;;;;6.87;2.03;;;;;;;;;;5034864;28;20534;-80
2023/12/25 01:04:23;;;;;;;9.53;2.13;;;;;;;;;;5035450;28;20522;-79
2023/12/25 01:06:50;;;;;;;12.70;2.50;;;;;;;;;;5034982;28;21423;-80
2023/12/25 01:09:16;;;;;;;8.93;1.93;;;;;;;;;;5035168;28;20519;-80
2023/12/25 01:11:43;;;;;;;4.53;1.80;;;;;;;;;;5034623;28;20507;-80
2023/12/25 01:14:09;;;;;;;6.20;2.50;;;;;;;;;;5035237;28;20527;-80
2023/12/25 01:16:36;;;;;;;5.40;2.33;;;;;;;;;;5034474;28;20502;-79
2023/12/25 01:19:03;;;;;;;10.40;3.80;;;;;;;;;;5035214;28;20494;-80
2023/12/25 01:21:32;;;;;;;7.63;2.67;;;;;;;;;;5034324;28;20898;-80
2023/12/25 01:23:58;;;;;;;4.70;1.97;;;;;;;;;;5035034;28;20461;-80
2023/12/25 01:26:25;;;;;;;7.63;2.27;;;;;;;;;;5035117;28;20523;-80
2023/12/25 01:28:52;;;;;;;9.47;3.17;;;;;;;;;;5034629;28;20480;-80
2023/12/25 01:31:18;;;;;;;9.10;2.10;;;;;;;;;;5034974;28;20878;-80
2023/12/25 01:33:45;;;;;;;13.10;2.40;;;;;;;;;;5034612;28;20459;-79
2023/12/25 01:36:11;;;;;;;4.13;1.63;;;;;;;;;;5034797;28;20508;-80
2023/12/25 01:38:39;;;;;;;4.83;2.17;;;;;;;;;;5034611;28;20518;-80
2023/12/25 01:41:05;;;;;;;11.13;3.13;;;;;;;;;;5034788;28;20510;-79
2023/12/25 01:43:31;;;;;;;7.40;2.30;;;;;;;;;;5034014;28;20560;-79
2023/12/25 01:45:58;;;;;;;5.30;1.90;;;;;;;;;;5034309;28;20548;-80
2023/12/25 01:48:25;;;;;;;8.00;2.17;;;;;;;;;;5034049;28;20545;-80
2023/12/25 01:50:52;;;;;;;5.50;2.70;;;;;;;;;;5034757;28;20494;-79
2023/12/25 01:53:20;;;;;;;8.63;2.00;;;;;;;;;;5034254;28;20530;-79
2023/12/25 01:55:48;;;;;;;5.60;2.60;;;;;;;;;;5034157;28;20615;-79
2023/12/25 01:58:14;;;;;;;4.83;1.73;;;;;;;;;;5032912;28;20831;-80
2023/12/25 02:00:41;;;;;;;5.87;1.90;;;;;;;;;;5034748;28;21006;-80
2023/12/25 02:03:07;;;;;;;4.20;1.73;;;;;;;;;;5034276;28;20555;-80
2023/12/25 02:05:33;;;;;;;16.83;2.70;;;;;;;;;;5034972;28;20522;-79
2023/12/25 02:08:01;;;;;;;6.73;2.07;;;;;;;;;;5034150;28;20572;-79
2023/12/25 02:10:28;;;;;;;9.97;1.77;;;;;;;;;;5034601;28;20575;-80
2023/12/25 02:12:57;;;;;;;11.73;3.70;;;;;;;;;;5033573;28;20542;-80
2023/12/25 02:15:25;;;;;;;8.73;3.20;;;;;;;;;;5034727;28;20469;-80
2023/12/25 02:17:51;;;;;;;9.13;2.10;;;;;;;;;;5034608;28;20560;-80
2023/12/25 02:20:18;;;;;;;5.90;2.00;;;;;;;;;;5034454;28;20535;-79
2023/12/25 02:22:45;;;;;;;6.37;2.27;;;;;;;;;;5033806;28;21054;-79
2023/12/25 02:25:13;;;;;;;16.90;2.37;;;;;;;;;;5034326;28;20522;-79
2023/12/25 02:27:41;;;;;;;8.93;3.10;;;;;;;;;;5033945;28;20559;-79
2023/12/25 02:30:08;;;;;;;7.93;2.13;;;;;;;;;;5034198;28;20610;-79
2023/12/25 02:32:34;;;;;;;9.40;2.03;;;;;;;;;;5033902;28;20556;-79
2023/12/25 02:35:01;;;;;;;4.77;1.60;;;;;;;;;;5033886;28;20547;-80
2023/12/25 02:37:27;;;;;;;7.30;2.90;;;;;;;;;;5033801;28;20515;-80
2023/12/25 02:39:53;;;;;;;7.03;1.90;;;;;;;;;;5034524;28;20516;-80
2023/12/25 02:42:20;;;;;;;10.60;1.93;;;;;;;;;;5033259;28;20913;-79
2023/12/25 02:44:48;;;;;;;4.80;1.93;;;;;;;;;;5033474;28;20500;-80
2023/12/25 02:47:14;;;;;;;8.93;1.83;;;;;;;;;;5033085;28;20564;-79
2023/12/25 02:49:40;;;;;;;5.63;2.37;;;;;;;;;;5033809;28;20516;-80
2023/12/25 02:52:07;;;;;;;6.73;2.67;;;;;;;;;;5032953;28;21050;-79
2023/12/25 02:54:33;;;;;;;4.07;1.80;;;;;;;;;;5033772;28;20559;-79
2023/12/25 02:57:00;;;;;;;5.30;2.13;;;;;;;;;;5033312;28;20551;-79
2023/12/25 02:59:26;;;;;;;6.20;1.40;;;;;;;;;;5033551;28;20513;-79
2023/12/25 03:01:54;;;;;;;7.30;2.03;;;;;;;;;;5033116;28;20564;-80
2023/12/25 03:04:20;;;;;;;4.80;1.57;;;;;;;;;;5033494;28;20540;-79
2023/12/25 03:06:46;;;;;;;8.63;2.23;;;;;;;;;;5033063;28;20539;-80
2023/12/25 03:09:13;;;;;;;6.73;2.30;;;;;;;;;;5038609;28;20575;-79
2023/12/25 03:11:39;;;;;;;5.17;1.50;;;;;;;;;;5039594;28;20468;-80
2023/12/25 03:14:06;;;;;;;4.97;1.70;;;;;;;;;;5039735;28;20495;-79
2023/12/25 03:16:32;;;;;;;6.00;2.53;;;;;;;;;;5039660;28;20510;-80
2023/12/25 03:19:00;;;;;;;4.30;1.93;;;;;;;;;;5039942;28;20515;-79
2023/12/25 03:21:26;;;;;;;5.63;2.00;;;;;;;;;;5039259;28;20866;-79
2023/12/25 03:23:53;;;;;;;6.37;2.00;;;;;;;;;;5039715;28;20531;-80
2023/12/25 03:26:19;;;;;;;3.90;2.30;;;;;;;;;;5039535;28;20861;-79
2023/12/25 03:28:45;;;;;;;5.83;2.03;;;;;;;;;;5038969;28;20563;-79
2023/12/25 03:31:12;;;;;;;8.33;2.40;;;;;;;;;;5039967;28;20537;-79
2023/12/25 03:33:39;;;;;;;12.80;2.20;;;;;;;;;;5039333;28;20556;-79
2023/12/25 03:36:08;;;;;;;9.50;2.40;;;;;;;;;;5039633;28;20544;-79
2023/12/25 03:38:34;;;;;;;6.27;1.97;;;;;;;;;;5039470;28;20547;-79
2023/12/25 03:41:01;;;;;;;6.47;3.00;;;;;;;;;;5039364;28;20523;-79
2023/12/25 03:43:27;;;;;;;5.13;1.50;;;;;;;;;;5039181;28;20560;-79
2023/12/25 03:45:53;;;;;;;7.13;2.27;;;;;;;;;;5039274;28;20547;-79
2023/12/25 03:48:20;;;;;;;6.07;2.57;;;;;;;;;;5039325;28;20564;-79
2023/12/25 03:50:47;;;;;;;4.80;2.20;;;;;;;;;;5039746;28;20444;-79
2023/12/25 03:53:14;;;;;;;8.90;2.43;;;;;;;;;;5039168;28;20892;-79
2023/12/25 03:55:41;;;;;;;7.93;1.80;;;;;;;;;;5039473;28;20543;-80
2023/12/25 03:58:07;;;;;;;10.87;2.10;;;;;;;;;;5039176;28;20559;-79
2023/12/25 04:00:34;;;;;;;10.77;2.60;;;;;;;;;;5039482;28;20531;-79
2023/12/25 04:03:00;;;;;;;6.47;2.07;;;;;;;;;;5038787;28;20575;-79
2023/12/25 04:05:26;;;;;;;5.83;2.10;;;;;;;;;;5039324;28;21045;-79
2023/12/25 04:07:53;;;;;;;4.67;2.00;;;;;;;;;;5038753;28;20571;-80
2023/12/25 04:10:21;;;;;;;7.57;2.00;;;;;;;;;;5039345;28;20527;-79
2023/12/25 04:12:47;;;;;;;7.37;2.17;;;;;;;;;;5038875;28;21006;-80
2023/12/25 04:15:13;;;;;;;3.20;1.90;;;;;;;;;;5040104;28;20556;-79
2023/12/25 04:17:40;;;;;;;5.10;1.50;;;;;;;;;;5039352;28;20571;-80
2023/12/25 04:20:07;;;;;;;13.20;2.17;;;;;;;;;;5036775;28;20498;-79
2023/12/25 04:22:33;;;;;;;9.23;2.20;;;;;;;;;;5036320;28;20556;-79
2023/12/25 04:24:59;;;;;;;5.57;1.60;;;;;;;;;;5036663;28;20544;-79
2023/12/25 04:27:27;;;;;;;6.70;2.53;;;;;;;;;;5035652;28;20492;-80
2023/12/25 04:29:54;;;;;;;9.03;2.30;;;;;;;;;;5035901;28;20571;-79
2023/12/25 04:32:20;;;;;;;11.97;1.90;;;;;;;;;;5035898;28;20551;-79
2023/12/25 04:34:47;;;;;;;3.40;1.77;;;;;;;;;;5035940;28;20441;-80
2023/12/25 04:37:13;;;;;;;15.63;2.70;;;;;;;;;;5035881;28;20515;-79
2023/12/25 04:39:41;;;;;;;9.70;2.60;;;;;;;;;;5036262;28;20505;-79
2023/12/25 04:42:08;;;;;;;6.80;2.20;;;;;;;;;;5035878;28;20552;-79
2023/12/25 04:44:36;;;;;;;4.10;1.97;;;;;;;;;;5035897;28;20544;-80
2023/12/25 04:47:02;;;;;;;8.20;2.20;;;;;;;;;;5035917;28;20552;-79
2023/12/25 04:49:29;;;;;;;17.07;2.60;;;;;;;;;;5035871;28;20579;-80
2023/12/25 04:51:55;;;;;;;8.87;2.63;;;;;;;;;;5036197;28;20560;-80
2023/12/25 04:54:22;;;;;;;12.33;3.37;;;;;;;;;;5035888;28;20465;-80
2023/12/25 04:56:51;;;;;;;8.60;2.37;;;;;;;;;;5035272;28;20981;-79
2023/12/25 04:59:20;;;;;;;8.20;3.40;;;;;;;;;;5035567;28;20891;-79
2023/12/25 05:01:48;;;;;;;12.37;2.90;;;;;;;;;;5035301;28;20435;-80
2023/12/25 05:04:15;;;;;;;10.13;3.00;;;;;;;;;;5035486;28;20472;-79
2023/12/25 05:06:41;;;;;;;12.10;1.90;;;;;;;;;;5035411;28;20470;-80
2023/12/25 05:09:08;;;;;;;9.30;2.33;;;;;;;;;;5035238;28;20580;-79
2023/12/25 05:11:34;;;;;;;7.83;2.30;;;;;;;;;;5035043;28;20434;-80
2023/12/25 05:14:01;;;;;;;9.80;2.77;;;;;;;;;;5034959;28;20536;-79
2023/12/25 05:16:27;;;;;;;9.50;2.20;;;;;;;;;;5034934;28;20506;-80
2023/12/25 05:18:55;;;;;;;12.23;2.83;;;;;;;;;;5035067;28;20524;-80
2023/12/25 05:21:22;;;;;;;5.80;3.03;;;;;;;;;;5035221;28;20519;-79
2023/12/25 05:23:48;;;;;;;5.83;2.07;;;;;;;;;;5034896;28;20556;-79
2023/12/25 05:26:15;;;;;;;7.50;2.43;;;;;;;;;;5035028;28;20531;-79
2023/12/25 05:28:41;;;;;;;9.20;2.30;;;;;;;;;;5034882;28;20564;-79
2023/12/25 05:31:07;;;;;;;9.83;2.10;;;;;;;;;;5034306;28;20523;-79
2023/12/25 05:33:34;;;;;;;11.63;2.50;;;;;;;;;;5034540;28;20560;-79
2023/12/25 05:36:02;;;;;;;10.17;2.67;;;;;;;;;;5034790;28;20503;-79
2023/12/25 05:38:28;;;;;;;7.20;2.47;;;;;;;;;;5034505;28;21037;-79
2023/12/25 05:40:54;;;;;;;13.63;2.70;;;;;;;;;;5034664;28;20845;-79
2023/12/25 05:43:21;;;;;;;6.07;2.57;;;;;;;;;;5034501;28;20556;-80
2023/12/25 05:45:47;;;;;;;7.87;2.30;;;;;;;;;;5034315;28;21038;-79
2023/12/25 05:48:14;;;;;;;11.63;2.50;;;;;;;;;;5034091;28;20560;-79
2023/12/25 05:50:40;;;;;;;8.37;2.17;;;;;;;;;;5034606;28;20874;-79
2023/12/25 05:53:08;;;;;;;7.50;2.80;;;;;;;;;;5033786;28;20552;-79
2023/12/25 05:55:34;;;;;;;8.73;2.43;;;;;;;;;;5034241;28;21041;-79
2023/12/25 05:58:01;;;;;;;9.73;2.27;;;;;;;;;;5033724;28;20913;-79
2023/12/25 06:00:28;;;;;;;7.13;2.63;;;;;;;;;;5034035;28;20527;-79
2023/12/25 06:02:54;;;;;;;9.97;2.60;;;;;;;;;;5034175;28;20556;-79
2023/12/25 06:05:21;;;;;;;12.97;2.97;;;;;;;;;;5034429;28;20528;-79
2023/12/25 06:07:47;;;;;;;7.53;2.27;;;;;;;;;;5033868;28;20555;-79
2023/12/25 06:10:15;;;;;;;7.80;2.83;;;;;;;;;;5033830;28;21073;-79
2023/12/25 06:12:42;;;;;;;7.47;2.13;;;;;;;;;;5033842;28;20471;-79
2023/12/25 06:15:09;;;;;;;16.03;3.77;;;;;;;;;;5033987;28;20554;-79
2023/12/25 06:17:35;;;;;;;9.07;1.93;;;;;;;;;;5033438;28;20912;-79
2023/12/25 06:20:02;;;;;;;8.63;2.60;;;;;;;;;;5033979;28;21014;-79
2023/12/25 06:22:29;;;;;;;10.07;2.63;;;;;;;;;;5033370;28;21076;-79
2023/12/25 06:24:55;;;;;;;8.00;2.53;;;;;;;;;;5034028;28;20468;-79
2023/12/25 06:27:23;;;;;;;4.27;2.40;;;;;;;;;;5033995;28;20469;-79
2023/12/25 06:29:50;;;;;;;6.20;2.30;;;;;;;;;;5034007;28;20484;-80
2023/12/25 06:32:16;;;;;;;11.10;2.50;;;;;;;;;;5034069;28;21042;-80
2023/12/25 06:34:43;;;;;;;10.43;2.77;;;;;;;;;;5034346;28;20831;-79
2023/12/25 06:37:09;;;;;;;11.93;3.90;;;;;;;;;;5033670;28;20555;-79
2023/12/25 06:39:35;;;;;;;12.80;2.00;;;;;;;;;;5034293;28;20863;-79
2023/12/25 06:42:02;;;;;;;10.23;2.80;;;;;;;;;;5033678;28;20553;-79
2023/12/25 06:44:30;;;;;;;7.43;2.27;;;;;;;;;;5033531;28;20471;-80
2023/12/25 06:46:56;;;;;;;16.10;2.23;;;;;;;;;;5033455;28;20543;-79
2023/12/25 06:49:22;;;;;;;9.90;2.83;;;;;;;;;;5029854;28;20560;-80
2023/12/25 06:51:49;;;;;;;5.73;1.83;;;;;;;;;;5033597;28;20544;-79
2023/12/25 06:54:16;;;;;;;7.60;2.53;;;;;;;;;;5033717;28;20497;-79
2023/12/25 06:56:43;;;;;;;10.57;2.20;;;;;;;;;;5033116;28;20476;-80
2023/12/25 06:59:10;;;;;;;11.90;2.30;;;;;;;;;;5033408;28;20461;-79
2023/12/25 07:01:38;;;;;;;8.47;2.00;;;;;;;;;;5032678;28;20551;-80
2023/12/25 07:04:04;;;;;;;7.87;2.70;;;;;;;;;;5033803;28;20875;-79
2023/12/25 07:06:31;;;;;;;4.90;2.37;;;;;;;;;;5033076;28;20516;-80
2023/12/25 07:08:57;;;;;;;4.70;2.43;;;;;;;;;;5033755;28;20568;-79
2023/12/25 07:11:24;;;;;;;9.93;2.60;;;;;;;;;;5033008;28;21133;-80
2023/12/25 07:13:50;;;;;;;10.33;2.10;;;;;;;;;;5033500;28;20531;-79
2023/12/25 07:16:23;;;;;;;13.00;3.00;;;;;;;;;;5033405;28;20503;-80
2023/12/25 07:18:52;;;;;;;6.63;2.20;;;;;;;;;;5033694;28;20437;-79
2023/12/25 07:21:18;;;;;;;10.30;2.70;;;;;;;;;;5033254;28;20552;-79
2023/12/25 07:23:44;;;;;;;10.27;3.73;;;;;;;;;;5033378;28;20532;-79
2023/12/25 07:26:11;;;;;;;6.50;3.00;;;;;;;;;;5033246;28;20547;-80
2023/12/25 07:28:37;;;;;;;11.20;2.70;;;;;;;;;;5033406;28;20889;-79
2023/12/25 07:31:04;;;;;;;7.40;2.40;;;;;;;;;;5033008;28;20555;-79
2023/12/25 07:33:33;;;;;;;9.90;2.60;;;;;;;;;;5033329;28;20883;-79
2023/12/25 07:36:01;;;;;;;10.67;2.83;;;;;;;;;;5032843;28;20526;-79
2023/12/25 07:38:27;;;;;;;8.07;2.30;;;;;;;;;;5033424;28;20532;-79
2023/12/25 07:40:53;;;;;;;14.30;2.60;;;;;;;;;;5032825;28;20544;-80
2023/12/25 07:43:21;;;;;;;10.43;3.07;;;;;;;;;;5033002;28;20535;-79
2023/12/25 07:45:47;;;;;;;8.43;3.00;;;;;;;;;;5032994;28;20472;-81
2023/12/25 07:48:13;;;;;;;9.67;2.70;;;;;;;;;;5033200;28;20527;-80
2023/12/25 07:50:40;;;;;;;14.27;2.93;;;;;;;;;;5032734;28;20551;-80
2023/12/25 07:53:08;;;;;;;9.90;3.40;;;;;;;;;;5033323;28;20471;-81
2023/12/25 07:55:36;;;;;;;11.60;2.37;;;;;;;;;;5034289;28;20560;-81
2023/12/25 07:58:03;;;;;;;11.40;2.87;;;;;;;;;;5036791;28;20452;-81
2023/12/25 08:00:29;;;;;;;18.80;3.33;;;;;;;;;;5036603;28;20555;-79
2023/12/25 08:02:56;;;;;;;10.23;2.13;;;;;;;;;;5038145;28;20998;-79
2023/12/25 08:05:22;;;;;;;11.13;2.60;;;;;;;;;;5036047;28;20548;-78
2023/12/25 08:07:49;;;;;;;13.40;3.23;;;;;;;;;;5037235;28;20515;-79
2023/12/25 08:10:16;;;;;;;12.33;2.93;;;;;;;;;;5036178;28;20556;-79
2023/12/25 08:12:44;;;;;;;9.70;2.80;;;;;;;;;;5036485;28;20469;-79
2023/12/25 08:15:11;;;;;;;14.53;3.97;;;;;;;;;;5036246;28;20471;-80
2023/12/25 08:17:38;;;;;;;12.53;2.73;;;;;;;;;;5036592;28;20444;-79
2023/12/25 08:20:05;;;;;;;9.03;3.10;;;;;;;;;;5035863;28;20896;-78
2023/12/25 08:22:31;;;;;;;13.57;2.97;;;;;;;;;;5036592;28;20877;-80
2023/12/25 08:24:59;;;;;;;16.30;2.93;;;;;;;;;;5036157;28;20504;-80
2023/12/25 08:27:26;;;;;;;14.83;4.20;;;;;;;;;;5036352;28;20505;-79
2023/12/25 08:29:53;;;;;;;7.97;2.27;;;;;;;;;;5035993;28;20923;-80
2023/12/25 08:32:19;;;;;;;10.20;3.40;;;;;;;;;;5036092;28;20444;-78
2023/12/25 08:34:46;;;;;;;11.40;3.33;;;;;;;;;;5035998;28;21030;-80
2023/12/25 08:37:12;;;;;;;14.53;2.93;;;;;;;;;;5036052;28;20556;-79
2023/12/25 08:39:39;;;;;;;13.53;2.43;;;;;;;;;;5036281;28;20539;-79
2023/12/25 08:42:05;;;;;;;9.57;3.07;;;;;;;;;;5035622;28;20563;-80
2023/12/25 08:44:34;;;;;;;21.73;3.17;;;;;;;;;;5035968;28;20561;-80
2023/12/25 08:47:00;;;;;;;10.43;2.33;;;;;;;;;;5035572;28;20907;-80
2023/12/25 08:49:26;;;;;;;10.50;2.40;;;;;;;;;;5036182;28;20571;-81
2023/12/25 08:51:53;;;;;;;11.10;2.83;;;;;;;;;;5036041;28;20552;-79
2023/12/25 08:54:19;;;;;;;15.73;3.30;;;;;;;;;;5036131;28;20547;-80
2023/12/25 08:56:46;;;;;;;12.30;2.33;;;;;;;;;;5035612;28;20598;-80
2023/12/25 08:59:12;;;;;;;17.50;3.47;;;;;;;;;;5035645;28;21022;-79
2023/12/25 09:01:40;;;;;;;6.10;2.37;;;;;;;;;;5035465;28;20543;-80
2023/12/25 09:04:08;;;;;;;9.73;2.70;;;;;;;;;;5035838;28;20468;-82
2023/12/25 09:06:34;;;;;;;4.90;2.77;;;;;;;;;;5035312;28;21045;-81
2023/12/25 09:09:01;;;;;;;6.67;2.30;;;;;;;;;;5036525;28;20524;-79
2023/12/25 09:11:28;;;;;;;8.50;3.57;;;;;;;;;;5036635;28;20545;-80
2023/12/25 09:13:54;;;;;;;6.33;2.83;;;;;;;;;;5036221;28;20500;-81
2023/12/25 09:16:21;;;;;;;7.83;2.37;;;;;;;;;;5036034;28;20555;-79
2023/12/25 09:18:48;;;;;;;7.67;2.27;;;;;;;;;;5036034;28;20524;-81
2023/12/25 09:21:17;;;;;;;9.60;2.93;;;;;;;;;;5034978;28;20552;-81
2023/12/25 09:23:43;;;;;;;9.37;3.23;;;;;;;;;;5035256;28;20441;-81
2023/12/25 09:26:08;;;;;;;14.80;4.47;;;;;;;;;;5035458;28;20559;-81
2023/12/25 09:28:35;;;;;;;10.20;2.87;;;;;;;;;;5035993;28;20617;-80
2023/12/25 09:31:01;;;;;;;14.53;3.10;;;;;;;;;;5035513;28;20316;-79
2023/12/25 09:33:28;;;;;;;7.07;2.60;;;;;;;;;;5035997;28;20520;-79
2023/12/25 09:35:55;;;;;;;13.47;3.07;;;;;;;;;;5035002;28;20559;-80
2023/12/25 09:38:22;;;;;;;8.20;1.97;;;;;;;;;;5035765;28;20504;-81
2023/12/25 09:40:48;;;;;;;5.60;2.03;;;;;;;;;;5034717;28;21042;-81
2023/12/25 09:43:15;;;;;;;9.73;2.53;;;;;;;;;;5034891;28;20443;-81
2023/12/25 09:45:43;;;;;;;10.00;2.70;;;;;;;;;;5035297;28;20924;-80
2023/12/25 09:48:09;;;;;;;7.10;2.20;;;;;;;;;;5034996;28;20785;-79
2023/12/25 09:50:37;;;;;;;6.47;2.40;;;;;;;;;;5035029;28;20551;-79
2023/12/25 09:53:05;;;;;;;7.17;2.60;;;;;;;;;;5035264;28;20441;-80
2023/12/25 09:55:32;;;;;;;5.47;1.80;;;;;;;;;;5034441;28;20563;-82
2023/12/25 09:58:00;;;;;;;11.60;2.60;;;;;;;;;;5034495;28;20515;-82
2023/12/25 10:00:27;;;;;;;9.87;2.53;;;;;;;;;;5034479;28;21050;-81
2023/12/25 10:02:54;;;;;;;6.43;2.10;;;;;;;;;;5035484;28;20524;-81
2023/12/25 10:05:21;;;;;;;8.20;2.20;;;;;;;;;;5033664;28;21070;-81
2023/12/25 10:07:47;;;;;;;9.70;3.00;;;;;;;;;;5034302;28;20872;-81
2023/12/25 10:10:15;;;;;;;6.60;2.50;;;;;;;;;;5035921;28;20532;-81
2023/12/25 10:12:43;;;;;;;5.60;2.37;;;;;;;;;;5034476;28;20516;-81
2023/12/25 10:15:10;;;;;;;6.97;1.90;;;;;;;;;;5033435;28;20544;-81
2023/12/25 10:17:36;;;;;;;11.10;2.80;;;;;;;;;;5033391;28;21046;-81
2023/12/25 10:20:03;;;;;;;10.17;3.23;;;;;;;;;;5033640;28;20532;-81
2023/12/25 10:22:30;;;;;;;12.53;2.80;;;;;;;;;;5033756;28;20535;-80
2023/12/25 10:25:04;;;;;;;8.20;2.80;;;;;;;;;;5033428;28;20515;-81
2023/12/25 10:27:32;;;;;;;5.27;2.00;;;;;;;;;;5034291;28;20422;-80
2023/12/25 10:30:00;;;;;;;13.30;2.33;;;;;;;;;;5033545;28;20563;-82
2023/12/25 10:32:26;;;;;;;8.03;4.03;;;;;;;;;;5034091;28;20519;-81
2023/12/25 10:35:09;;;;;;;10.00;2.40;;;;;;;;;;5033092;28;20559;-81
2023/12/25 10:37:37;;;;;;;7.60;2.43;;;;;;;;;;5033940;28;20516;-81
2023/12/25 10:40:18;;;;;;;10.33;2.70;;;;;;;;;;5033382;28;20532;-81
2023/12/25 10:42:47;;;;;;;6.60;2.03;;;;;;;;;;5033433;28;20417;-81
2023/12/25 10:45:14;;;;;;;4.40;1.90;;;;;;;;;;5033195;28;20552;-81
2023/12/25 10:47:40;;;;;;;6.43;2.20;;;;;;;;;;5033824;28;20519;-81
2023/12/25 10:50:07;;;;;;;6.20;2.23;;;;;;;;;;5033260;28;20567;-81
2023/12/25 10:52:34;;;;;;;12.57;2.87;;;;;;;;;;5033750;28;20479;-81
2023/12/25 10:55:01;;;;;;;10.30;2.33;;;;;;;;;;5033115;28;20928;-81
2023/12/25 10:57:27;;;;;;;7.03;2.13;;;;;;;;;;5033452;28;21005;-81
2023/12/25 10:59:55;;;;;;;7.90;2.60;;;;;;;;;;5032171;28;21018;-81
2023/12/25 11:02:22;;;;;;;16.57;3.40;;;;;;;;;;5033636;28;20542;-81
2023/12/25 11:04:48;;;;;;;9.00;2.27;;;;;;;;;;5033479;28;20548;-81
2023/12/25 11:07:17;;;;;;;7.90;2.17;;;;;;;;;;5032946;28;20543;-81
2023/12/25 11:09:45;;;;;;;5.17;2.40;;;;;;;;;;5033385;28;20440;-80
2023/12/25 11:12:12;;;;;;;11.53;2.53;;;;;;;;;;5033519;28;20479;-81
2023/12/25 11:14:38;;;;;;;11.40;3.20;;;;;;;;;;5033335;28;20551;-81
2023/12/25 11:17:07;;;;;;;10.27;2.30;;;;;;;;;;5033595;28;20904;-81
2023/12/25 11:19:33;;;;;;;12.03;3.23;;;;;;;;;;5033355;28;20449;-81
2023/12/25 11:22:00;;;;;;;9.97;2.50;;;;;;;;;;5032777;28;20469;-81
2023/12/25 11:24:27;;;;;;;11.80;2.83;;;;;;;;;;5033346;28;20524;-81
2023/12/25 11:27:01;;;;;;;12.37;2.57;;;;;;;;;;5032914;28;20559;-80
2023/12/25 11:29:30;;;;;;;8.03;3.00;;;;;;;;;;5034628;28;20460;-81
2023/12/25 11:31:56;;;;;;;9.70;2.97;;;;;;;;;;5037546;28;20477;-81
2023/12/25 11:34:29;;;;;;;10.37;3.77;;;;;;;;;;5037100;28;20547;-81
2023/12/25 11:36:57;;;;;;;6.93;2.37;;;;;;;;;;5037187;28;20476;-81
2023/12/25 11:39:24;;;;;;;12.63;2.83;;;;;;;;;;5037192;28;20869;-81
2023/12/25 11:41:50;;;;;;;12.47;2.40;;;;;;;;;;5036751;28;21050;-81
2023/12/25 11:44:18;;;;;;;8.57;2.30;;;;;;;;;;5037073;28;20543;-81
2023/12/25 11:46:46;;;;;;;16.03;2.57;;;;;;;;;;5036863;28;20556;-81
2023/12/25 11:49:13;;;;;;;13.17;2.57;;;;;;;;;;5036712;28;20436;-81
2023/12/25 11:51:44;;;;;;;9.93;2.50;;;;;;;;;;5036661;28;20481;-81
2023/12/25 11:54:12;;;;;;;5.60;2.00;;;;;;;;;;5036807;28;20543;-81
2023/12/25 11:56:39;;;;;;;8.00;2.20;;;;;;;;;;5036980;28;20500;-81
2023/12/25 11:59:05;;;;;;;8.67;2.53;;;;;;;;;;5036755;28;21042;-81
2023/12/25 12:01:31;;;;;;;7.43;2.23;;;;;;;;;;5036493;28;21070;-80
2023/12/25 12:03:57;;;;;;;10.03;2.37;;;;;;;;;;5036748;28;20527;-81
2023/12/25 12:06:24;;;;;;;16.27;2.53;;;;;;;;;;5034915;28;20254;-80
2023/12/25 12:08:52;;;;;;;9.87;2.27;;;;;;;;;;5035873;28;20995;-81
2023/12/25 12:11:20;;;;;;;4.17;1.87;;;;;;;;;;5036052;28;20478;-81
2023/12/25 12:13:46;;;;;;;6.77;2.03;;;;;;;;;;5036378;28;20970;-81
2023/12/25 12:16:13;;;;;;;14.47;3.00;;;;;;;;;;5035963;28;20906;-81
2023/12/25 12:18:39;;;;;;;9.70;2.50;;;;;;;;;;5036567;28;20889;-81
2023/12/25 12:21:06;;;;;;;7.50;2.10;;;;;;;;;;5036357;28;20547;-81
2023/12/25 12:23:32;;;;;;;15.13;3.13;;;;;;;;;;5036382;28;21014;-81
2023/12/25 12:26:00;;;;;;;6.70;2.87;;;;;;;;;;5036202;28;20620;-81
2023/12/25 12:28:27;;;;;;;7.70;3.10;;;;;;;;;;5036822;28;20868;-81
2023/12/25 12:30:53;;;;;;;7.10;2.93;;;;;;;;;;5036257;28;21048;-81
2023/12/25 12:33:20;;;;;;;11.20;3.03;;;;;;;;;;5036364;28;20544;-81
2023/12/25 12:35:48;;;;;;;8.90;2.40;;;;;;;;;;5035833;28;20564;-81
2023/12/25 12:38:14;;;;;;;9.20;2.53;;;;;;;;;;5035845;28;20994;-81
2023/12/25 12:40:41;;;;;;;5.40;1.90;;;;;;;;;;5034714;28;20559;-80
2023/12/25 12:43:09;;;;;;;9.37;2.07;;;;;;;;;;5036362;28;21002;-81
2023/12/25 12:45:35;;;;;;;10.13;2.10;;;;;;;;;;5035594;28;20944;-81
2023/12/25 12:48:02;;;;;;;7.73;2.53;;;;;;;;;;5035688;28;20892;-81
2023/12/25 12:50:28;;;;;;;9.50;2.43;;;;;;;;;;5035322;28;20468;-81
2023/12/25 12:52:54;;;;;;;11.27;3.10;;;;;;;;;;5035916;28;20531;-80
2023/12/25 12:55:21;;;;;;;10.10;3.90;;;;;;;;;;5034412;28;20548;-81
2023/12/25 12:57:47;;;;;;;11.60;4.40;;;;;;;;;;5035663;28;20494;-81
2023/12/25 13:00:16;;;;;;;9.40;2.90;;;;;;;;;;5035262;28;20656;-81
2023/12/25 13:02:43;;;;;;;8.50;2.37;;;;;;;;;;5035486;28;20468;-80
2023/12/25 13:05:08;;;;;;;5.23;1.90;;;;;;;;;;5035259;28;20483;-81
2023/12/25 13:07:35;;;;;;;5.70;1.43;;;;;;;;;;5035508;28;20508;-81
2023/12/25 13:10:01;;;;;;;10.37;2.60;;;;;;;;;;5035055;28;20299;-81
2023/12/25 13:12:28;;;;;;;5.87;2.17;;;;;;;;;;5035493;28;20483;-81
2023/12/25 13:14:54;;;;;;;7.00;2.20;;;;;;;;;;5034761;28;20570;-81
2023/12/25 13:17:22;;;;;;;8.10;2.10;;;;;;;;;;5034941;28;20873;-81
2023/12/25 13:19:48;;;;;;;7.40;2.40;;;;;;;;;;5035247;28;20468;-81
2023/12/25 13:22:15;;;;;;;8.87;2.50;;;;;;;;;;5034909;28;20455;-80
2023/12/25 13:24:42;;;;;;;6.30;2.53;;;;;;;;;;5034973;28;20496;-81
2023/12/25 13:27:08;;;;;;;7.77;2.47;;;;;;;;;;5034814;28;20497;-81
2023/12/25 13:29:35;;;;;;;8.50;2.30;;;;;;;;;;5035041;28;20465;-81
2023/12/25 13:32:01;;;;;;;10.87;2.80;;;;;;;;;;5034766;28;20512;-80
2023/12/25 13:34:30;;;;;;;12.20;3.40;;;;;;;;;;5034942;28;20500;-81
2023/12/25 13:36:56;;;;;;;10.10;4.40;;;;;;;;;;5034332;28;20472;-81
2023/12/25 13:39:23;;;;;;;12.23;2.60;;;;;;;;;;5034967;28;20444;-81
2023/12/25 13:41:49;;;;;;;8.73;3.27;;;;;;;;;;5034435;28;21011;-81
2023/12/25 13:44:16;;;;;;;11.80;2.57;;;;;;;;;;5034755;28;20651;-81
2023/12/25 13:46:42;;;;;;;9.70;2.27;;;;;;;;;;5034274;28;20500;-81
2023/12/25 13:49:09;;;;;;;9.67;2.33;;;;;;;;;;5034738;28;20439;-81
2023/12/25 13:51:37;;;;;;;7.17;2.70;;;;;;;;;;5033921;28;20473;-81
2023/12/25 13:54:03;;;;;;;22.40;4.57;;;;;;;;;;5034650;28;20511;-81
2023/12/25 13:56:30;;;;;;;14.37;2.27;;;;;;;;;;5034160;28;20473;-81
2023/12/25 13:58:56;;;;;;;7.10;2.00;;;;;;;;;;5034179;28;20515;-81
2023/12/25 14:01:23;;;;;;;13.50;2.10;;;;;;;;;;5033840;28;20492;-81
2023/12/25 14:03:49;;;;;;;8.03;2.63;;;;;;;;;;5034491;28;20857;-81
2023/12/25 14:06:15;;;;;;;9.47;2.33;;;;;;;;;;5033626;28;21017;-81
2023/12/25 14:08:43;;;;;;;6.93;2.20;;;;;;;;;;5034300;28;20503;-81
2023/12/25 14:11:10;;;;;;;23.17;4.23;;;;;;;;;;5034069;28;20508;-81
2023/12/25 14:13:36;;;;;;;9.90;3.43;;;;;;;;;;5034306;28;20814;-81
2023/12/25 14:16:03;;;;;;;17.63;3.00;;;;;;;;;;5033384;28;21009;-81
2023/12/25 14:18:29;;;;;;;9.67;3.63;;;;;;;;;;5034142;28;20451;-81
2023/12/25 14:20:56;;;;;;;8.50;2.70;;;;;;;;;;5033891;28;20534;-81
2023/12/25 14:23:22;;;;;;;12.90;3.27;;;;;;;;;;5034096;28;20522;-81
2023/12/25 14:25:51;;;;;;;22.37;3.30;;;;;;;;;;5033377;28;20977;-81
2023/12/25 14:28:17;;;;;;;5.30;2.10;;;;;;;;;;5034152;28;20432;-81
2023/12/25 14:30:43;;;;;;;15.03;3.50;;;;;;;;;;5033330;28;20496;-81
2023/12/25 14:33:15;;;;;;;11.90;4.90;;;;;;;;;;5033493;28;20817;-81
2023/12/25 14:35:42;;;;;;;11.70;2.43;;;;;;;;;;5033012;28;20511;-81